Time;durP1;ratioP1;P1;durP2;ratioP2;P2;SDS_P1;SDS_P2;PMS_P1;PMS_P2;Temp;Humidity;BMP_temperature;BMP_pressure;BME280_temperature;BME280_humidity;BME280_pressure;Samples;Min_cycle;Max_cycle;Signal;HPM_P1;HPM_P2
2022/11/22 00:00:31;;;;;;;9.75;1.60;;;;;;;;;;5035176;28;20045;-71
2022/11/22 00:02:58;;;;;;;8.05;1.50;;;;;;;;;;5034985;28;20128;-71
2022/11/22 00:05:24;;;;;;;5.57;1.42;;;;;;;;;;5034883;28;20053;-71
2022/11/22 00:07:50;;;;;;;5.13;1.40;;;;;;;;;;5034867;28;20055;-71
2022/11/22 00:10:17;;;;;;;7.15;1.55;;;;;;;;;;5035426;28;20396;-71
2022/11/22 00:12:43;;;;;;;8.15;1.60;;;;;;;;;;5035112;28;20067;-71
2022/11/22 00:15:10;;;;;;;4.93;2.20;;;;;;;;;;5035311;28;20080;-71
2022/11/22 00:17:37;;;;;;;8.80;3.38;;;;;;;;;;5033693;28;20055;-71
2022/11/22 00:20:04;;;;;;;4.80;1.65;;;;;;;;;;5034868;28;20436;-71
2022/11/22 00:22:31;;;;;;;6.15;1.63;;;;;;;;;;5034682;28;20053;-71
2022/11/22 00:24:57;;;;;;;4.47;1.80;;;;;;;;;;5034928;28;20045;-71
2022/11/22 00:27:24;;;;;;;3.78;1.35;;;;;;;;;;5034527;28;20287;-71
2022/11/22 00:29:50;;;;;;;4.70;1.90;;;;;;;;;;5033187;28;20412;-71
2022/11/22 00:32:17;;;;;;;10.68;2.53;;;;;;;;;;5034407;28;20049;-71
2022/11/22 00:34:43;;;;;;;5.20;1.10;;;;;;;;;;5033006;28;20049;-71
2022/11/22 00:37:09;;;;;;;6.90;1.73;;;;;;;;;;5034510;28;20049;-71
2022/11/22 00:39:36;;;;;;;5.95;1.80;;;;;;;;;;5034420;28;20493;-71
2022/11/22 00:42:02;;;;;;;8.60;1.60;;;;;;;;;;5034450;28;20752;-71
2022/11/22 00:44:29;;;;;;;6.97;1.95;;;;;;;;;;5034479;28;20049;-71
2022/11/22 00:46:56;;;;;;;6.43;1.33;;;;;;;;;;5034115;28;20049;-71
2022/11/22 00:49:22;;;;;;;7.83;0.90;;;;;;;;;;5033168;28;20061;-71
2022/11/22 00:51:48;;;;;;;5.30;1.40;;;;;;;;;;5034122;28;20140;-71
2022/11/22 00:54:15;;;;;;;4.68;1.30;;;;;;;;;;5034361;28;20053;-71
2022/11/22 00:56:41;;;;;;;2.13;1.10;;;;;;;;;;5034033;28;20049;-71
2022/11/22 00:59:07;;;;;;;5.63;1.20;;;;;;;;;;5034191;28;20052;-71
2022/11/22 01:01:34;;;;;;;4.65;0.98;;;;;;;;;;5034257;28;20050;-71
2022/11/22 01:04:00;;;;;;;7.43;1.50;;;;;;;;;;5033750;28;20489;-70
2022/11/22 01:06:27;;;;;;;5.38;1.02;;;;;;;;;;5033981;28;20520;-70
2022/11/22 01:08:54;;;;;;;6.22;1.27;;;;;;;;;;5034203;28;20053;-71
2022/11/22 01:11:20;;;;;;;5.15;1.85;;;;;;;;;;5033630;28;20049;-71
2022/11/22 01:13:46;;;;;;;5.60;1.17;;;;;;;;;;5033940;28;20051;-71
2022/11/22 01:16:14;;;;;;;5.07;0.95;;;;;;;;;;5032474;28;20045;-71
2022/11/22 01:18:40;;;;;;;2.95;0.90;;;;;;;;;;5033673;28;20408;-71
2022/11/22 01:21:06;;;;;;;4.32;1.15;;;;;;;;;;5033838;28;20049;-71
2022/11/22 01:23:33;;;;;;;7.00;1.20;;;;;;;;;;5033890;28;20378;-70
2022/11/22 01:25:59;;;;;;;4.47;1.30;;;;;;;;;;5033550;28;20087;-71
2022/11/22 01:28:26;;;;;;;5.95;1.20;;;;;;;;;;5033631;28;20049;-71
2022/11/22 01:30:53;;;;;;;6.47;2.50;;;;;;;;;;5032372;28;20417;-71
2022/11/22 01:33:19;;;;;;;4.15;1.95;;;;;;;;;;5033403;28;20057;-71
2022/11/22 01:35:46;;;;;;;7.93;1.67;;;;;;;;;;5033316;28;20060;-71
2022/11/22 01:38:12;;;;;;;7.57;1.38;;;;;;;;;;5031905;28;20132;-71
2022/11/22 01:40:39;;;;;;;7.85;1.88;;;;;;;;;;5033508;28;20058;-71
2022/11/22 01:43:12;;;;;;;4.93;1.50;;;;;;;;;;5019971;28;20164;-71
2022/11/22 01:45:40;;;;;;;3.75;1.35;;;;;;;;;;5007079;28;20056;-71
2022/11/22 01:48:22;;;;;;;3.35;1.20;;;;;;;;;;5031989;28;20407;-71
2022/11/22 01:50:51;;;;;;;5.78;1.42;;;;;;;;;;5032975;28;20052;-71
2022/11/22 01:53:19;;;;;;;7.25;1.67;;;;;;;;;;5033045;28;20046;-71
2022/11/22 01:55:46;;;;;;;10.48;3.38;;;;;;;;;;5031990;28;20469;-71
2022/11/22 01:58:14;;;;;;;11.18;2.60;;;;;;;;;;5032255;28;20504;-71
2022/11/22 02:00:42;;;;;;;4.22;1.38;;;;;;;;;;5032941;28;20045;-70
2022/11/22 02:03:08;;;;;;;;;;;;;;;;;;5033417;28;20060;-71
2022/11/22 02:05:34;;;;;;;4.70;2.20;;;;;;;;;;5032601;28;19931;-71
2022/11/22 02:08:17;;;;;;;5.82;1.42;;;;;;;;;;5031659;28;20050;-71
2022/11/22 02:10:46;;;;;;;5.00;1.65;;;;;;;;;;5032638;28;20504;-71
2022/11/22 02:13:13;;;;;;;5.53;1.50;;;;;;;;;;5032806;28;20061;-71
2022/11/22 02:15:40;;;;;;;3.40;1.60;;;;;;;;;;5032616;28;20049;-71
2022/11/22 02:18:06;;;;;;;4.68;1.80;;;;;;;;;;5032372;28;20051;-71
2022/11/22 02:20:33;;;;;;;4.43;2.35;;;;;;;;;;5032625;28;20054;-71
2022/11/22 02:23:02;;;;;;;10.07;3.83;;;;;;;;;;5032521;28;20447;-71
2022/11/22 02:25:42;;;;;;;7.43;2.67;;;;;;;;;;5032623;28;20136;-71
2022/11/22 02:28:10;;;;;;;10.07;3.80;;;;;;;;;;5032316;28;20058;-71
2022/11/22 02:30:37;;;;;;;13.60;4.63;;;;;;;;;;5023475;28;20101;-71
2022/11/22 02:33:03;;;;;;;8.27;2.70;;;;;;;;;;5027377;28;20080;-71
2022/11/22 02:35:30;;;;;;;13.93;4.82;;;;;;;;;;5032488;28;20042;-71
2022/11/22 02:37:58;;;;;;;8.73;3.53;;;;;;;;;;5031987;28;20053;-71
2022/11/22 02:40:25;;;;;;;3.20;1.63;;;;;;;;;;5031291;28;20053;-71
2022/11/22 02:42:54;;;;;;;8.38;2.38;;;;;;;;;;5032624;28;20053;-71
2022/11/22 02:45:20;;;;;;;3.05;1.05;;;;;;;;;;5031843;28;20053;-71
2022/11/22 02:47:47;;;;;;;2.17;0.63;;;;;;;;;;5030889;28;20136;-71
2022/11/22 02:50:13;;;;;;;2.00;0.68;;;;;;;;;;5032234;28;20052;-71
2022/11/22 02:52:40;;;;;;;2.63;1.15;;;;;;;;;;5032219;28;20057;-71
2022/11/22 02:55:06;;;;;;;3.20;0.52;;;;;;;;;;5030598;28;20520;-71
2022/11/22 02:57:33;;;;;;;1.10;0.50;;;;;;;;;;5031919;28;20378;-71
2022/11/22 02:59:59;;;;;;;2.45;0.68;;;;;;;;;;5031993;28;20061;-71
2022/11/22 03:02:25;;;;;;;4.95;0.70;;;;;;;;;;5031807;28;20076;-71
2022/11/22 03:04:52;;;;;;;2.85;0.73;;;;;;;;;;5032297;28;20056;-71
2022/11/22 03:07:18;;;;;;;3.45;0.50;;;;;;;;;;5028931;28;20049;-71
2022/11/22 03:09:45;;;;;;;2.90;0.68;;;;;;;;;;5028397;28;20057;-71
2022/11/22 03:12:11;;;;;;;7.03;0.80;;;;;;;;;;5030265;28;20052;-71
2022/11/22 03:14:38;;;;;;;2.90;0.55;;;;;;;;;;5031931;28;20412;-71
2022/11/22 03:17:04;;;;;;;2.92;0.68;;;;;;;;;;5031754;28;20072;-71
2022/11/22 03:19:30;;;;;;;4.22;0.75;;;;;;;;;;5031537;28;20049;-71
2022/11/22 03:21:57;;;;;;;7.97;1.67;;;;;;;;;;5030239;28;20060;-71
2022/11/22 03:24:24;;;;;;;4.50;0.80;;;;;;;;;;5030356;28;20056;-71
2022/11/22 03:26:50;;;;;;;4.60;1.02;;;;;;;;;;5031676;28;20045;-71
2022/11/22 03:29:17;;;;;;;3.72;0.63;;;;;;;;;;5031666;28;20045;-71
2022/11/22 03:31:43;;;;;;;5.43;1.10;;;;;;;;;;5031672;28;20041;-71
2022/11/22 03:34:11;;;;;;;4.13;0.65;;;;;;;;;;5030488;28;20084;-71
2022/11/22 03:36:37;;;;;;;3.92;0.90;;;;;;;;;;5031523;28;20064;-70
2022/11/22 03:39:03;;;;;;;3.67;0.90;;;;;;;;;;5031361;28;20083;-70
2022/11/22 03:41:30;;;;;;;5.55;0.90;;;;;;;;;;5017925;28;20056;-70
2022/11/22 03:43:56;;;;;;;4.28;0.95;;;;;;;;;;5031161;28;20055;-71
2022/11/22 03:46:22;;;;;;;3.65;0.93;;;;;;;;;;5031563;28;20057;-71
2022/11/22 03:48:49;;;;;;;4.95;1.20;;;;;;;;;;5030013;28;20564;-71
2022/11/22 03:51:15;;;;;;;5.93;1.10;;;;;;;;;;5031186;28;20045;-70
2022/11/22 03:53:42;;;;;;;4.60;1.40;;;;;;;;;;5031198;28;20053;-71
2022/11/22 03:56:08;;;;;;;5.40;1.30;;;;;;;;;;5030156;28;20061;-71
2022/11/22 03:58:35;;;;;;;7.13;1.58;;;;;;;;;;5031548;28;20136;-70
2022/11/22 04:01:01;;;;;;;3.95;1.50;;;;;;;;;;5031275;28;20397;-71
2022/11/22 04:03:28;;;;;;;5.28;0.90;;;;;;;;;;5031455;28;20075;-71
2022/11/22 04:05:54;;;;;;;3.72;1.00;;;;;;;;;;5031389;28;20045;-71
2022/11/22 04:08:21;;;;;;;5.10;1.25;;;;;;;;;;5031367;28;20049;-71
2022/11/22 04:10:48;;;;;;;3.78;1.40;;;;;;;;;;5031267;28;20045;-71
2022/11/22 04:13:15;;;;;;;4.95;1.33;;;;;;;;;;5031283;28;20053;-71
2022/11/22 04:15:41;;;;;;;4.57;1.75;;;;;;;;;;5031172;28;20141;-70
2022/11/22 04:18:08;;;;;;;3.95;1.17;;;;;;;;;;5031288;28;20464;-71
2022/11/22 04:23:20;;;;;;;4.15;1.75;;;;;;;;;;5035023;28;20075;-70
2022/11/22 04:25:48;;;;;;;4.75;1.50;;;;;;;;;;5034951;28;20057;-71
2022/11/22 04:28:15;;;;;;;4.47;1.30;;;;;;;;;;5034867;28;20103;-70
2022/11/22 04:33:27;;;;;;;5.25;1.63;;;;;;;;;;5034680;28;20409;-70
2022/11/22 04:35:54;;;;;;;3.70;1.60;;;;;;;;;;5034874;28;20049;-70
2022/11/22 04:38:20;;;;;;;3.67;1.30;;;;;;;;;;5034655;28;20049;-71
2022/11/22 04:40:47;;;;;;;3.50;1.40;;;;;;;;;;5024656;28;20056;-70
2022/11/22 04:46:10;;;;;;;3.65;1.08;;;;;;;;;;5034569;28;20049;-70
2022/11/22 04:48:37;;;;;;;1.95;1.10;;;;;;;;;;5032433;28;20056;-70
2022/11/22 04:53:50;;;;;;;4.03;1.10;;;;;;;;;;5034116;28;20052;-71
2022/11/22 04:56:17;;;;;;;5.95;2.45;;;;;;;;;;5034033;28;20060;-71
2022/11/22 04:58:43;;;;;;;4.03;1.15;;;;;;;;;;5034092;28;20490;-71
2022/11/22 05:01:09;;;;;;;5.20;1.00;;;;;;;;;;5034295;28;20057;-70
2022/11/22 05:03:36;;;;;;;1.50;0.98;;;;;;;;;;5033942;28;20410;-71
2022/11/22 05:06:03;;;;;;;3.20;1.20;;;;;;;;;;5034057;28;20083;-70
2022/11/22 05:08:30;;;;;;;2.38;1.33;;;;;;;;;;5033946;28;20052;-70
2022/11/22 05:10:56;;;;;;;2.85;1.58;;;;;;;;;;5033964;28;20405;-70
2022/11/22 05:13:25;;;;;;;2.22;1.67;;;;;;;;;;5034002;28;20538;-71
2022/11/22 05:15:51;;;;;;;2.33;1.50;;;;;;;;;;5033771;28;20045;-71
2022/11/22 05:18:18;;;;;;;2.60;1.55;;;;;;;;;;5033966;28;20050;-71
2022/11/22 05:20:45;;;;;;;4.28;1.52;;;;;;;;;;5032686;28;20202;-70
2022/11/22 05:25:56;;;;;;;2.13;1.90;;;;;;;;;;5033884;28;20382;-71
2022/11/22 05:28:22;;;;;;;4.28;2.15;;;;;;;;;;5033658;28;20052;-71
2022/11/22 05:30:48;;;;;;;2.70;2.08;;;;;;;;;;5033748;28;20056;-71
2022/11/22 05:33:15;;;;;;;5.43;2.22;;;;;;;;;;5032218;28;20045;-71
2022/11/22 05:35:41;;;;;;;5.55;2.65;;;;;;;;;;5033487;28;20053;-71
2022/11/22 05:38:07;;;;;;;5.95;3.92;;;;;;;;;;5033109;28;20058;-71
2022/11/22 05:40:34;;;;;;;4.90;2.90;;;;;;;;;;5033208;28;20049;-71
2022/11/22 05:43:00;;;;;;;5.57;3.63;;;;;;;;;;5033195;28;20068;-71
2022/11/22 05:45:26;;;;;;;6.15;3.08;;;;;;;;;;5031979;28;20045;-71
2022/11/22 05:47:54;;;;;;;5.28;2.25;;;;;;;;;;5032058;28;20059;-70
2022/11/22 05:50:21;;;;;;;5.65;2.70;;;;;;;;;;5032914;28;20045;-71
2022/11/22 05:52:47;;;;;;;5.13;2.40;;;;;;;;;;5032947;28;20045;-71
2022/11/22 05:55:13;;;;;;;3.08;2.30;;;;;;;;;;5033146;28;20052;-71
2022/11/22 05:57:40;;;;;;;4.55;2.13;;;;;;;;;;5033058;28;20053;-71
2022/11/22 06:00:07;;;;;;;5.07;1.92;;;;;;;;;;5032810;28;20497;-71
2022/11/22 06:02:33;;;;;;;5.22;2.30;;;;;;;;;;5032845;28;20061;-71
2022/11/22 06:04:59;;;;;;;4.25;2.22;;;;;;;;;;5031476;28;20137;-71
2022/11/22 06:07:26;;;;;;;5.28;2.55;;;;;;;;;;5032674;28;20057;-71
2022/11/22 06:09:52;;;;;;;5.15;2.53;;;;;;;;;;5031449;28;20111;-70
2022/11/22 06:12:19;;;;;;;4.07;1.95;;;;;;;;;;5032440;28;20042;-70
2022/11/22 06:14:45;;;;;;;3.83;1.70;;;;;;;;;;5031672;28;20052;-71
2022/11/22 06:17:11;;;;;;;3.05;1.48;;;;;;;;;;5032546;28;20049;-70
2022/11/22 06:19:38;;;;;;;3.60;1.45;;;;;;;;;;5032430;28;20042;-71
2022/11/22 06:22:05;;;;;;;2.78;1.48;;;;;;;;;;5032731;28;20064;-70
2022/11/22 06:24:31;;;;;;;3.57;2.10;;;;;;;;;;5031096;28;20493;-71
2022/11/22 06:26:58;;;;;;;5.43;2.20;;;;;;;;;;5032548;28;20045;-71
2022/11/22 06:29:24;;;;;;;5.10;2.13;;;;;;;;;;5032331;28;20136;-71
2022/11/22 06:31:51;;;;;;;3.88;2.35;;;;;;;;;;5032542;28;20099;-71
2022/11/22 06:34:18;;;;;;;6.95;2.58;;;;;;;;;;5030950;28;20053;-71
2022/11/22 06:36:45;;;;;;;4.45;2.03;;;;;;;;;;5032056;28;20047;-71
2022/11/22 06:39:11;;;;;;;3.70;1.80;;;;;;;;;;5032225;28;20049;-71
2022/11/22 06:41:38;;;;;;;2.90;1.80;;;;;;;;;;5030724;28;20045;-71
2022/11/22 06:44:05;;;;;;;4.40;2.10;;;;;;;;;;5032294;28;20078;-71
2022/11/22 06:46:32;;;;;;;5.15;2.03;;;;;;;;;;5032253;28;20128;-71
2022/11/22 06:48:59;;;;;;;3.42;1.83;;;;;;;;;;5030997;28;20045;-70
2022/11/22 06:51:27;;;;;;;5.72;1.88;;;;;;;;;;5032198;28;20050;-71
2022/11/22 06:53:54;;;;;;;8.02;2.08;;;;;;;;;;5030987;28;20136;-71
2022/11/22 06:56:20;;;;;;;9.05;2.67;;;;;;;;;;5032413;28;20050;-70
2022/11/22 06:58:47;;;;;;;7.55;2.92;;;;;;;;;;5031869;28;20586;-70
2022/11/22 07:01:15;;;;;;;8.13;1.97;;;;;;;;;;5032150;28;20095;-70
2022/11/22 07:03:42;;;;;;;7.00;2.33;;;;;;;;;;5031633;28;20057;-70
2022/11/22 07:06:10;;;;;;;8.48;2.42;;;;;;;;;;5032094;28;20095;-71
2022/11/22 07:08:37;;;;;;;6.40;1.70;;;;;;;;;;5030976;28;20071;-71
2022/11/22 07:11:04;;;;;;;8.25;2.40;;;;;;;;;;5030719;28;20053;-70
2022/11/22 07:13:31;;;;;;;5.18;2.05;;;;;;;;;;5031685;28;20041;-70
2022/11/22 07:15:59;;;;;;;5.85;2.20;;;;;;;;;;5031405;28;20124;-70
2022/11/22 07:18:26;;;;;;;7.57;2.60;;;;;;;;;;5031479;28;20053;-70
2022/11/22 07:20:52;;;;;;;5.40;2.10;;;;;;;;;;5030693;28;20045;-70
2022/11/22 07:23:19;;;;;;;8.20;2.45;;;;;;;;;;5031748;28;20079;-70
2022/11/22 07:25:46;;;;;;;5.88;2.35;;;;;;;;;;5031827;28;20055;-70
2022/11/22 07:28:13;;;;;;;3.97;1.00;;;;;;;;;;5030470;28;20051;-70
2022/11/22 07:30:40;;;;;;;4.45;0.93;;;;;;;;;;5013871;28;20081;-70
2022/11/22 07:33:09;;;;;;;7.88;1.23;;;;;;;;;;5010455;28;20084;-70
2022/11/22 07:35:36;;;;;;;7.32;1.50;;;;;;;;;;5010299;28;20050;-69
2022/11/22 07:38:02;;;;;;;6.00;1.10;;;;;;;;;;5011612;28;20054;-70
2022/11/22 07:40:29;;;;;;;3.40;0.80;;;;;;;;;;5030213;28;20038;-70
2022/11/22 07:42:55;;;;;;;4.40;0.95;;;;;;;;;;5031563;28;20610;-70
2022/11/22 07:45:24;;;;;;;2.03;0.65;;;;;;;;;;5030301;28;20081;-70
2022/11/22 07:47:50;;;;;;;2.17;0.68;;;;;;;;;;5031501;28;20242;-68
2022/11/22 07:50:16;;;;;;;2.22;0.70;;;;;;;;;;5031593;28;20052;-70
2022/11/22 07:52:43;;;;;;;2.80;0.80;;;;;;;;;;5030871;28;20044;-71
2022/11/22 07:55:10;;;;;;;2.38;1.02;;;;;;;;;;5031160;28;20046;-71
2022/11/22 07:57:39;;;;;;;1.40;0.60;;;;;;;;;;5033837;28;20041;-71
2022/11/22 08:00:06;;;;;;;2.35;0.60;;;;;;;;;;5035687;28;20083;-71
2022/11/22 08:02:33;;;;;;;2.45;1.10;;;;;;;;;;5034119;28;20073;-72
2022/11/22 08:04:59;;;;;;;1.83;0.80;;;;;;;;;;5034423;28;20054;-71
2022/11/22 08:07:25;;;;;;;1.98;0.77;;;;;;;;;;5034632;28;20045;-72
2022/11/22 08:09:52;;;;;;;2.92;0.65;;;;;;;;;;5034847;28;20053;-72
2022/11/22 08:12:18;;;;;;;3.67;0.60;;;;;;;;;;5034786;28;20053;-73
2022/11/22 08:14:44;;;;;;;2.35;0.60;;;;;;;;;;5034357;28;20049;-71
2022/11/22 08:17:11;;;;;;;1.75;0.82;;;;;;;;;;5035045;28;20045;-73
2022/11/22 08:19:38;;;;;;;8.57;7.78;;;;;;;;;;5034582;28;20049;-72
2022/11/22 08:22:04;;;;;;;5.65;2.70;;;;;;;;;;5033758;28;20108;-72
2022/11/22 08:24:32;;;;;;;1.80;1.40;;;;;;;;;;5034892;28;20049;-72
2022/11/22 08:26:58;;;;;;;2.13;0.82;;;;;;;;;;5033952;28;20132;-72
2022/11/22 08:29:27;;;;;;;3.15;1.40;;;;;;;;;;5034696;28;20055;-74
2022/11/22 08:31:54;;;;;;;1.00;0.90;;;;;;;;;;5033305;28;20049;-74
2022/11/22 08:34:21;;;;;;;5.03;1.38;;;;;;;;;;5031339;28;20500;-73
2022/11/22 08:36:47;;;;;;;3.00;1.38;;;;;;;;;;5034528;28;20144;-72
2022/11/22 08:39:13;;;;;;;3.85;1.73;;;;;;;;;;5033811;28;20397;-69
2022/11/22 08:41:40;;;;;;;3.42;1.42;;;;;;;;;;5032660;28;20401;-71
2022/11/22 08:44:06;;;;;;;1.73;1.17;;;;;;;;;;5033037;28;20045;-71
2022/11/22 08:46:33;;;;;;;2.95;1.40;;;;;;;;;;5032148;28;20049;-71
2022/11/22 08:49:02;;;;;;;4.80;1.35;;;;;;;;;;5034207;28;20509;-71
2022/11/22 08:51:29;;;;;;;4.50;1.20;;;;;;;;;;5034325;28;20053;-71
2022/11/22 08:53:55;;;;;;;1.75;0.65;;;;;;;;;;5034482;28;20054;-71
2022/11/22 08:56:21;;;;;;;3.40;0.90;;;;;;;;;;5033651;28;20049;-71
2022/11/22 08:58:48;;;;;;;4.97;1.02;;;;;;;;;;5033164;28;20049;-71
2022/11/22 09:01:15;;;;;;;3.20;1.20;;;;;;;;;;5029011;28;20042;-71
2022/11/22 09:03:42;;;;;;;5.20;1.60;;;;;;;;;;5028387;28;20054;-72
2022/11/22 09:06:10;;;;;;;3.88;1.48;;;;;;;;;;5018724;28;20053;-72
2022/11/22 09:08:57;;;;;;;7.68;1.50;;;;;;;;;;5032943;28;20049;-72
2022/11/22 09:11:43;;;;;;;5.63;1.50;;;;;;;;;;5033176;28;20053;-72
2022/11/22 09:14:09;;;;;;;6.15;1.83;;;;;;;;;;5031885;28;20056;-75
2022/11/22 09:16:36;;;;;;;6.00;2.03;;;;;;;;;;5031317;28;20038;-74
2022/11/22 09:19:03;;;;;;;9.52;5.10;;;;;;;;;;5032032;28;20054;-72
2022/11/22 09:21:29;;;;;;;9.13;5.85;;;;;;;;;;5031832;28;20045;-74
2022/11/22 09:23:56;;;;;;;4.57;3.60;;;;;;;;;;5031673;28;20047;-73
2022/11/22 09:26:24;;;;;;;4.63;2.97;;;;;;;;;;5033274;28;20489;-73
2022/11/22 09:28:51;;;;;;;4.88;2.53;;;;;;;;;;5026050;28;20053;-71
2022/11/22 09:31:18;;;;;;;;;;;;;;;;;;5022270;28;20053;-73
2022/11/22 09:33:45;;;;;;;6.72;2.40;;;;;;;;;;5030353;28;19921;-73
2022/11/22 09:36:19;;;;;;;4.70;1.65;;;;;;;;;;5033062;28;20049;-72
2022/11/22 09:38:46;;;;;;;6.63;1.77;;;;;;;;;;5032850;28;20057;-72
2022/11/22 09:41:15;;;;;;;4.20;1.70;;;;;;;;;;5032331;28;20055;-72
2022/11/22 09:43:42;;;;;;;5.53;1.00;;;;;;;;;;5030606;28;20726;-75
2022/11/22 09:46:27;;;;;;;4.10;1.13;;;;;;;;;;5032540;28;20058;-73
2022/11/22 09:48:53;;;;;;;5.90;1.40;;;;;;;;;;5031439;28;20140;-74
2022/11/22 09:51:23;;;;;;;7.18;1.02;;;;;;;;;;5032428;28;20526;-72
2022/11/22 09:53:53;;;;;;;6.25;1.15;;;;;;;;;;5032393;28;20406;-72
2022/11/22 09:56:22;;;;;;;4.72;0.85;;;;;;;;;;5032069;28;20045;-73
2022/11/22 09:58:53;;;;;;;9.38;1.80;;;;;;;;;;5032968;28;20045;-73
2022/11/22 10:01:26;;;;;;;4.60;1.20;;;;;;;;;;5032534;28;20457;-73
2022/11/22 10:04:13;;;;;;;5.85;1.20;;;;;;;;;;5032682;28;20068;-73
2022/11/22 10:06:41;;;;;;;4.60;1.17;;;;;;;;;;5030941;28;20087;-73
2022/11/22 10:09:27;;;;;;;5.88;2.10;;;;;;;;;;5032561;28;20057;-73
2022/11/22 10:11:59;;;;;;;6.13;1.40;;;;;;;;;;5032085;28;20494;-72
2022/11/22 10:14:40;;;;;;;4.68;1.40;;;;;;;;;;5032030;28;20049;-72
2022/11/22 10:17:07;;;;;;;9.10;3.80;;;;;;;;;;5032229;28;20468;-72
2022/11/22 10:19:36;;;;;;;8.85;2.33;;;;;;;;;;5031655;28;20092;-73
2022/11/22 10:22:09;;;;;;;10.25;5.43;;;;;;;;;;5032201;28;20137;-73
2022/11/22 10:24:35;;;;;;;10.38;4.32;;;;;;;;;;5030922;28;20504;-71
2022/11/22 10:27:02;;;;;;;13.73;7.13;;;;;;;;;;5031642;28;20050;-72
2022/11/22 10:29:43;;;;;;;5.60;2.33;;;;;;;;;;5031683;28;20049;-73
2022/11/22 10:32:22;;;;;;;7.70;2.45;;;;;;;;;;5032629;28;20401;-73
2022/11/22 10:34:55;;;;;;;8.50;4.05;;;;;;;;;;5031732;28;20052;-74
2022/11/22 10:37:26;;;;;;;10.68;4.65;;;;;;;;;;5030501;28;20055;-74
2022/11/22 10:39:53;;;;;;;11.25;6.75;;;;;;;;;;5031754;28;20049;-73
2022/11/22 10:42:38;;;;;;;8.03;3.87;;;;;;;;;;5028287;28;20060;-73
2022/11/22 10:45:34;;;;;;;5.97;2.08;;;;;;;;;;4999805;28;20382;-73
2022/11/22 10:48:08;;;;;;;8.20;3.20;;;;;;;;;;5016989;28;20048;-72
2022/11/22 10:50:48;;;;;;;9.48;4.95;;;;;;;;;;5021644;28;20516;-73
2022/11/22 10:53:21;;;;;;;8.25;4.22;;;;;;;;;;5028645;28;20041;-73
2022/11/22 10:56:00;;;;;;;5.25;2.40;;;;;;;;;;5031498;28;20477;-73
2022/11/22 10:58:30;;;;;;;9.38;4.90;;;;;;;;;;5031573;28;20049;-71
2022/11/22 11:01:05;;;;;;;13.65;8.02;;;;;;;;;;5031454;28;20041;-72
2022/11/22 11:03:34;;;;;;;21.67;12.55;;;;;;;;;;5031204;28;20058;-72
2022/11/22 11:06:06;;;;;;;16.00;8.77;;;;;;;;;;5031490;28;20110;-72
2022/11/22 11:08:57;;;;;;;8.35;4.90;;;;;;;;;;5031163;28;20049;-73
2022/11/22 11:11:46;;;;;;;15.35;8.02;;;;;;;;;;5012429;28;20077;-72
2022/11/22 11:14:28;;;;;;;7.65;4.30;;;;;;;;;;5021057;28;20049;-73
2022/11/22 11:16:55;;;;;;;8.70;4.47;;;;;;;;;;5031240;28;20343;-72
2022/11/22 11:19:28;;;;;;;9.73;4.40;;;;;;;;;;5030083;28;20398;-72
2022/11/22 11:22:00;;;;;;;9.15;3.45;;;;;;;;;;5031277;28;20049;-73
2022/11/22 11:24:28;;;;;;;17.00;9.98;;;;;;;;;;5031491;28;20405;-72
2022/11/22 11:26:56;;;;;;;17.98;11.00;;;;;;;;;;5030186;28;20099;-72
2022/11/22 11:29:23;;;;;;;10.75;4.97;;;;;;;;;;5029947;28;20051;-70
2022/11/22 11:31:50;;;;;;;10.75;8.15;;;;;;;;;;5033288;28;20355;-70
2022/11/22 11:34:25;;;;;;;13.90;6.05;;;;;;;;;;5034048;28;20045;-71
2022/11/22 11:36:53;;;;;;;22.42;8.48;;;;;;;;;;5035198;28;20045;-71
2022/11/22 11:39:20;;;;;;;17.40;7.25;;;;;;;;;;5034913;28;20055;-72
2022/11/22 11:41:47;;;;;;;;;;;;;;;;;;5035608;28;20049;-71
2022/11/22 11:44:39;;;;;;;23.85;8.63;;;;;;;;;;5033123;28;20472;-72
2022/11/22 11:47:16;;;;;;;29.70;12.48;;;;;;;;;;5034578;28;20054;-71
2022/11/22 11:49:48;;;;;;;18.20;8.63;;;;;;;;;;5035231;28;20057;-71
2022/11/22 11:52:20;;;;;;;9.90;4.53;;;;;;;;;;5035105;28;20087;-71
2022/11/22 11:54:48;;;;;;;10.65;5.50;;;;;;;;;;5033474;28;20072;-72
2022/11/22 11:57:14;;;;;;;;;;;;;;;;;;5035164;28;20053;-72
2022/11/22 11:59:45;;;;;;;10.82;6.72;;;;;;;;;;5034784;28;20333;-72
2022/11/22 12:02:13;;;;;;;5.82;1.83;;;;;;;;;;5034739;28;20140;-73
2022/11/22 12:04:55;;;;;;;5.80;1.90;;;;;;;;;;5034812;28;20049;-73
2022/11/22 12:07:23;;;;;;;8.57;3.33;;;;;;;;;;5034921;28;20128;-71
2022/11/22 12:09:50;;;;;;;7.25;3.28;;;;;;;;;;5033535;28;20140;-70
2022/11/22 12:12:25;;;;;;;7.70;2.90;;;;;;;;;;5024010;28;20050;-72
2022/11/22 12:15:18;;;;;;;7.90;2.88;;;;;;;;;;5031864;28;20051;-70
2022/11/22 12:17:57;;;;;;;5.30;2.58;;;;;;;;;;5033773;28;20072;-73
2022/11/22 12:20:28;;;;;;;7.63;4.07;;;;;;;;;;5006789;28;20481;-70
2022/11/22 12:23:00;;;;;;;5.88;3.13;;;;;;;;;;5034192;28;20049;-71
2022/11/22 12:25:26;;;;;;;8.30;4.10;;;;;;;;;;5034206;28;20049;-70
2022/11/22 12:28:21;;;;;;;7.78;4.18;;;;;;;;;;5034387;28;20128;-71
2022/11/22 12:30:48;;;;;;;;;;;;;;;;;;5033432;28;20523;-71
2022/11/22 12:33:17;;;;;;;6.90;3.80;;;;;;;;;;5021237;28;20398;-72
2022/11/22 12:35:44;;;;;;;9.38;4.72;;;;;;;;;;5033036;28;20052;-72
2022/11/22 12:38:15;;;;;;;5.70;3.03;;;;;;;;;;5033732;28;20057;-72
2022/11/22 12:40:42;;;;;;;4.93;1.92;;;;;;;;;;5033733;28;20057;-70
2022/11/22 12:43:09;;;;;;;;;;;;;;;;;;5017518;28;20049;-70
2022/11/22 12:45:39;;;;;;;3.92;1.60;;;;;;;;;;5031554;28;19925;-72
2022/11/22 12:48:08;;;;;;;4.85;1.77;;;;;;;;;;5020501;28;20408;-70
2022/11/22 12:50:43;;;;;;;5.28;1.80;;;;;;;;;;5031801;28;20390;-70
2022/11/22 12:53:32;;;;;;;6.15;2.95;;;;;;;;;;5022721;28;20061;-71
2022/11/22 12:56:03;;;;;;;4.82;2.47;;;;;;;;;;5004113;28;20493;-70
2022/11/22 12:58:38;;;;;;;5.20;2.67;;;;;;;;;;5022670;28;20136;-70
2022/11/22 13:01:09;;;;;;;3.50;2.22;;;;;;;;;;5033791;28;20404;-73
2022/11/22 13:03:48;;;;;;;6.00;2.63;;;;;;;;;;5033558;28;20511;-71
2022/11/22 13:06:16;;;;;;;5.28;2.40;;;;;;;;;;5033360;28;20060;-74
2022/11/22 13:08:47;;;;;;;6.25;2.58;;;;;;;;;;5027473;28;20421;-71
2022/11/22 13:11:24;;;;;;;6.93;2.72;;;;;;;;;;5027001;28;20057;-70
2022/11/22 13:13:53;;;;;;;7.95;2.85;;;;;;;;;;5033371;28;20049;-71
2022/11/22 13:16:19;;;;;;;7.97;2.95;;;;;;;;;;5013905;28;20050;-74
2022/11/22 13:18:51;;;;;;;5.80;2.80;;;;;;;;;;5013357;28;20108;-70
2022/11/22 13:21:20;;;;;;;7.63;2.83;;;;;;;;;;5029780;28;20092;-75
2022/11/22 13:24:06;;;;;;;8.77;3.75;;;;;;;;;;5027487;28;20488;-71
2022/11/22 13:26:50;;;;;;;7.70;3.58;;;;;;;;;;5013486;28;20050;-70
2022/11/22 13:29:20;;;;;;;8.38;3.10;;;;;;;;;;5028303;28;20048;-70
2022/11/22 13:32:05;;;;;;;6.10;3.08;;;;;;;;;;5019338;28;20063;-71
2022/11/22 13:34:32;;;;;;;9.15;3.25;;;;;;;;;;5025723;28;20046;-71
2022/11/22 13:37:08;;;;;;;9.50;3.50;;;;;;;;;;5033059;28;20091;-71
2022/11/22 13:39:37;;;;;;;7.70;3.30;;;;;;;;;;5026269;28;20046;-71
2022/11/22 13:42:05;;;;;;;6.43;2.78;;;;;;;;;;5022316;28;20049;-71
2022/11/22 13:44:31;;;;;;;7.88;3.35;;;;;;;;;;5018100;28;20071;-72
2022/11/22 13:46:59;;;;;;;7.75;4.07;;;;;;;;;;5033001;28;20053;-76
2022/11/22 13:49:36;;;;;;;7.32;3.22;;;;;;;;;;5020113;28;20566;-72
2022/11/22 13:52:11;;;;;;;6.50;3.25;;;;;;;;;;5015943;28;20064;-72
2022/11/22 13:54:40;;;;;;;4.82;2.53;;;;;;;;;;5017669;28;20054;-74
2022/11/22 13:57:25;;;;;;;9.65;4.00;;;;;;;;;;5004405;28;20409;-71
2022/11/22 14:00:13;;;;;;;8.55;5.63;;;;;;;;;;5030732;28;20053;-72
2022/11/22 14:02:47;;;;;;;12.30;4.88;;;;;;;;;;5004879;28;20156;-72
2022/11/22 14:05:20;;;;;;;9.00;4.80;;;;;;;;;;5028214;28;20132;-69
2022/11/22 14:07:51;;;;;;;6.70;3.35;;;;;;;;;;5014885;28;20054;-70
2022/11/22 14:10:40;;;;;;;6.43;2.55;;;;;;;;;;5012274;28;20065;-70
2022/11/22 14:13:10;;;;;;;5.15;2.40;;;;;;;;;;5011386;28;20054;-69
2022/11/22 14:15:37;;;;;;;4.72;2.13;;;;;;;;;;5013843;28;20482;-70
2022/11/22 14:18:12;;;;;;;5.22;2.50;;;;;;;;;;5016456;28;20494;-70
2022/11/22 14:21:00;;;;;;;5.57;2.13;;;;;;;;;;5011695;28;20078;-69
2022/11/22 14:23:41;;;;;;;2.63;1.50;;;;;;;;;;5004649;28;20412;-70
2022/11/22 14:26:20;;;;;;;4.75;1.77;;;;;;;;;;5005210;28;20050;-69
2022/11/22 14:28:46;;;;;;;5.05;2.03;;;;;;;;;;5011569;28;20489;-70
2022/11/22 14:31:19;;;;;;;5.13;1.60;;;;;;;;;;5017807;28;20576;-69
2022/11/22 14:34:05;;;;;;;3.92;1.60;;;;;;;;;;5015802;28;20056;-69
2022/11/22 14:36:31;;;;;;;3.58;1.17;;;;;;;;;;5023925;28;20144;-68
2022/11/22 14:38:57;;;;;;;3.28;1.10;;;;;;;;;;5019604;28;20505;-69
2022/11/22 14:41:27;;;;;;;4.20;1.30;;;;;;;;;;5023677;28;20410;-68
2022/11/22 14:44:02;;;;;;;2.47;1.30;;;;;;;;;;5009693;28;20054;-68
2022/11/22 14:46:35;;;;;;;4.70;1.55;;;;;;;;;;5017192;28;20424;-71
2022/11/22 14:49:41;;;;;;;4.93;1.85;;;;;;;;;;5029191;28;20049;-70
2022/11/22 14:52:40;;;;;;;5.45;2.00;;;;;;;;;;5016868;28;20061;-71
2022/11/22 14:55:11;;;;;;;3.83;1.40;;;;;;;;;;5008441;28;20061;-71
2022/11/22 14:57:38;;;;;;;4.05;1.60;;;;;;;;;;5008087;28;20124;-71
2022/11/22 15:00:11;;;;;;;4.57;2.70;;;;;;;;;;5020492;28;20053;-71
2022/11/22 15:02:52;;;;;;;6.40;2.75;;;;;;;;;;5015877;28;20079;-71
2022/11/22 15:05:34;;;;;;;3.45;1.90;;;;;;;;;;4998735;28;20049;-71
2022/11/22 15:08:43;;;;;;;4.32;1.92;;;;;;;;;;5011812;28;20054;-73
2022/11/22 15:11:39;;;;;;;4.25;1.70;;;;;;;;;;5007201;28;20050;-71